sensor_id;sensor_type;location;lat;lon;timestamp;pressure;altitude;pressure_sealevel;temperature;humidity
62632;BME280;48703;51.248;-0.546;2022-12-29T00:00:59;98967;;;8.97;88.48
62632;BME280;48703;51.248;-0.546;2022-12-29T00:04:01;98958;;;8.95;88.19
62632;BME280;48703;51.248;-0.546;2022-12-29T00:07:02;98956;;;8.93;88.14
62632;BME280;48703;51.248;-0.546;2022-12-29T00:10:05;98954;;;8.91;88.09
62632;BME280;48703;51.248;-0.546;2022-12-29T00:13:06;98948;;;8.89;88.37
62632;BME280;48703;51.248;-0.546;2022-12-29T00:16:08;98945;;;8.86;88.07
62632;BME280;48703;51.248;-0.546;2022-12-29T00:19:11;98936;;;8.83;88.29
62632;BME280;48703;51.248;-0.546;2022-12-29T00:22:13;98931;;;8.81;88.61
62632;BME280;48703;51.248;-0.546;2022-12-29T00:25:14;98929;;;8.78;88.56
62632;BME280;48703;51.248;-0.546;2022-12-29T00:28:16;98925;;;8.76;88.83
62632;BME280;48703;51.248;-0.546;2022-12-29T00:31:18;98922;;;8.74;88.90
62632;BME280;48703;51.248;-0.546;2022-12-29T00:34:20;98911;;;8.71;88.88
62632;BME280;48703;51.248;-0.546;2022-12-29T00:37:22;98920;;;8.69;88.63
62632;BME280;48703;51.248;-0.546;2022-12-29T00:40:24;98923;;;8.66;88.20
62632;BME280;48703;51.248;-0.546;2022-12-29T00:43:26;98923;;;8.64;87.60
62632;BME280;48703;51.248;-0.546;2022-12-29T00:46:28;98927;;;8.61;86.78
62632;BME280;48703;51.248;-0.546;2022-12-29T00:49:30;98928;;;8.59;85.67
62632;BME280;48703;51.248;-0.546;2022-12-29T00:52:32;98933;;;8.57;86.11
62632;BME280;48703;51.248;-0.546;2022-12-29T00:55:36;98921;;;8.56;85.89
62632;BME280;48703;51.248;-0.546;2022-12-29T00:58:36;98926;;;8.55;86.12
62632;BME280;48703;51.248;-0.546;2022-12-29T01:01:38;98921;;;8.55;86.03
62632;BME280;48703;51.248;-0.546;2022-12-29T01:04:40;98918;;;8.54;85.77
62632;BME280;48703;51.248;-0.546;2022-12-29T01:07:42;98914;;;8.52;84.34
62632;BME280;48703;51.248;-0.546;2022-12-29T01:10:44;98910;;;8.52;85.25
62632;BME280;48703;51.248;-0.546;2022-12-29T01:13:46;98907;;;8.52;85.24
62632;BME280;48703;51.248;-0.546;2022-12-29T01:16:48;98916;;;8.51;85.65
62632;BME280;48703;51.248;-0.546;2022-12-29T01:19:50;98919;;;8.49;85.36
62632;BME280;48703;51.248;-0.546;2022-12-29T01:22:52;98917;;;8.48;85.58
62632;BME280;48703;51.248;-0.546;2022-12-29T01:25:54;98915;;;8.46;85.44
62632;BME280;48703;51.248;-0.546;2022-12-29T01:28:56;98912;;;8.44;85.49
62632;BME280;48703;51.248;-0.546;2022-12-29T01:31:58;98910;;;8.42;84.64
62632;BME280;48703;51.248;-0.546;2022-12-29T01:35:00;98907;;;8.40;84.89
62632;BME280;48703;51.248;-0.546;2022-12-29T01:38:02;98903;;;8.38;83.73
62632;BME280;48703;51.248;-0.546;2022-12-29T01:41:05;98909;;;8.37;84.42
62632;BME280;48703;51.248;-0.546;2022-12-29T01:45:12;98913;;;8.34;83.82
62632;BME280;48703;51.248;-0.546;2022-12-29T01:47:08;98921;;;8.31;83.58
62632;BME280;48703;51.248;-0.546;2022-12-29T01:50:11;98915;;;8.29;83.46
62632;BME280;48703;51.248;-0.546;2022-12-29T01:53:13;98913;;;8.28;82.57
62632;BME280;48703;51.248;-0.546;2022-12-29T01:56:15;98915;;;8.26;83.27
62632;BME280;48703;51.248;-0.546;2022-12-29T01:59:17;98912;;;8.25;83.15
62632;BME280;48703;51.248;-0.546;2022-12-29T02:02:18;98900;;;8.23;83.55
62632;BME280;48703;51.248;-0.546;2022-12-29T02:05:23;98898;;;8.21;83.78
62632;BME280;48703;51.248;-0.546;2022-12-29T02:08:22;98887;;;8.19;84.65
62632;BME280;48703;51.248;-0.546;2022-12-29T02:11:25;98879;;;8.18;85.14
62632;BME280;48703;51.248;-0.546;2022-12-29T02:14:26;98887;;;8.17;85.55
62632;BME280;48703;51.248;-0.546;2022-12-29T02:17:32;98887;;;8.18;85.11
62632;BME280;48703;51.248;-0.546;2022-12-29T02:20:42;98888;;;8.19;85.54
62632;BME280;48703;51.248;-0.546;2022-12-29T02:23:43;98891;;;8.22;85.25
62632;BME280;48703;51.248;-0.546;2022-12-29T02:26:38;98889;;;8.25;85.00
62632;BME280;48703;51.248;-0.546;2022-12-29T02:29:40;98886;;;8.26;85.47
62632;BME280;48703;51.248;-0.546;2022-12-29T02:32:40;98885;;;8.26;85.20
62632;BME280;48703;51.248;-0.546;2022-12-29T02:35:46;98879;;;8.27;85.45
62632;BME280;48703;51.248;-0.546;2022-12-29T02:38:46;98881;;;8.28;85.16
62632;BME280;48703;51.248;-0.546;2022-12-29T02:41:46;98875;;;8.29;84.98
62632;BME280;48703;51.248;-0.546;2022-12-29T02:44:54;98877;;;8.29;84.72
62632;BME280;48703;51.248;-0.546;2022-12-29T02:47:49;98869;;;8.29;84.62
62632;BME280;48703;51.248;-0.546;2022-12-29T02:50:51;98869;;;8.29;84.16
62632;BME280;48703;51.248;-0.546;2022-12-29T02:53:52;98872;;;8.31;84.01
62632;BME280;48703;51.248;-0.546;2022-12-29T02:56:54;98879;;;8.36;83.18
62632;BME280;48703;51.248;-0.546;2022-12-29T02:59:57;98897;;;8.38;82.87
62632;BME280;48703;51.248;-0.546;2022-12-29T03:03:04;98900;;;8.43;83.27
62632;BME280;48703;51.248;-0.546;2022-12-29T03:06:04;98894;;;8.44;83.63
62632;BME280;48703;51.248;-0.546;2022-12-29T03:09:04;98892;;;8.45;83.94
62632;BME280;48703;51.248;-0.546;2022-12-29T03:12:07;98890;;;8.47;84.00
62632;BME280;48703;51.248;-0.546;2022-12-29T03:15:07;98898;;;8.48;83.34
62632;BME280;48703;51.248;-0.546;2022-12-29T03:18:10;98904;;;8.51;83.17
62632;BME280;48703;51.248;-0.546;2022-12-29T03:21:12;98906;;;8.55;83.07
62632;BME280;48703;51.248;-0.546;2022-12-29T03:24:12;98914;;;8.57;83.66
62632;BME280;48703;51.248;-0.546;2022-12-29T03:27:14;98919;;;8.59;83.75
62632;BME280;48703;51.248;-0.546;2022-12-29T03:30:16;98915;;;8.61;83.94
62632;BME280;48703;51.248;-0.546;2022-12-29T03:33:18;98913;;;8.62;84.29
62632;BME280;48703;51.248;-0.546;2022-12-29T03:36:22;98916;;;8.64;84.42
62632;BME280;48703;51.248;-0.546;2022-12-29T03:39:22;98915;;;8.67;84.12
62632;BME280;48703;51.248;-0.546;2022-12-29T03:42:25;98909;;;8.71;83.97
62632;BME280;48703;51.248;-0.546;2022-12-29T03:45:26;98907;;;8.73;83.96
62632;BME280;48703;51.248;-0.546;2022-12-29T03:48:28;98907;;;8.76;83.46
62632;BME280;48703;51.248;-0.546;2022-12-29T03:51:30;98918;;;8.77;84.18
62632;BME280;48703;51.248;-0.546;2022-12-29T03:54:32;98919;;;8.80;83.07
62632;BME280;48703;51.248;-0.546;2022-12-29T03:57:34;98919;;;8.83;83.30
62632;BME280;48703;51.248;-0.546;2022-12-29T04:00:36;98925;;;8.86;83.58
62632;BME280;48703;51.248;-0.546;2022-12-29T04:03:38;98933;;;8.87;84.59
62632;BME280;48703;51.248;-0.546;2022-12-29T04:06:40;98936;;;8.84;85.19
62632;BME280;48703;51.248;-0.546;2022-12-29T04:09:42;98940;;;8.82;85.67
62632;BME280;48703;51.248;-0.546;2022-12-29T04:12:44;98934;;;8.81;86.16
62632;BME280;48703;51.248;-0.546;2022-12-29T04:15:46;98931;;;8.80;86.08
62632;BME280;48703;51.248;-0.546;2022-12-29T04:18:48;98931;;;8.80;86.03
62632;BME280;48703;51.248;-0.546;2022-12-29T04:21:50;98936;;;8.80;86.32
62632;BME280;48703;51.248;-0.546;2022-12-29T04:24:52;98942;;;8.79;86.43
62632;BME280;48703;51.248;-0.546;2022-12-29T04:27:54;98944;;;8.80;86.29
62632;BME280;48703;51.248;-0.546;2022-12-29T04:30:56;98942;;;8.80;86.53
62632;BME280;48703;51.248;-0.546;2022-12-29T04:33:58;98946;;;8.80;86.68
62632;BME280;48703;51.248;-0.546;2022-12-29T04:37:00;98945;;;8.81;86.93
62632;BME280;48703;51.248;-0.546;2022-12-29T04:40:02;98950;;;8.82;87.24
62632;BME280;48703;51.248;-0.546;2022-12-29T04:43:04;98960;;;8.83;87.42
62632;BME280;48703;51.248;-0.546;2022-12-29T04:46:06;98969;;;8.83;87.99
62632;BME280;48703;51.248;-0.546;2022-12-29T04:49:08;98972;;;8.82;88.63
62632;BME280;48703;51.248;-0.546;2022-12-29T04:52:10;98971;;;8.80;89.10
62632;BME280;48703;51.248;-0.546;2022-12-29T04:55:12;98978;;;8.78;89.39
62632;BME280;48703;51.248;-0.546;2022-12-29T04:58:14;98988;;;8.77;89.51
62632;BME280;48703;51.248;-0.546;2022-12-29T05:01:16;98997;;;8.75;89.48
62632;BME280;48703;51.248;-0.546;2022-12-29T05:04:18;99004;;;8.74;89.62
62632;BME280;48703;51.248;-0.546;2022-12-29T05:07:20;99008;;;8.74;89.69
62632;BME280;48703;51.248;-0.546;2022-12-29T05:10:22;99016;;;8.74;89.47
62632;BME280;48703;51.248;-0.546;2022-12-29T05:13:24;99016;;;8.74;89.41
62632;BME280;48703;51.248;-0.546;2022-12-29T05:16:26;99024;;;8.73;89.42
62632;BME280;48703;51.248;-0.546;2022-12-29T05:19:28;99033;;;8.73;89.16
62632;BME280;48703;51.248;-0.546;2022-12-29T05:22:30;99037;;;8.74;88.67
62632;BME280;48703;51.248;-0.546;2022-12-29T05:25:32;99048;;;8.75;88.86
62632;BME280;48703;51.248;-0.546;2022-12-29T05:28:34;99059;;;8.75;88.65
62632;BME280;48703;51.248;-0.546;2022-12-29T05:31:36;99071;;;8.74;88.36
62632;BME280;48703;51.248;-0.546;2022-12-29T05:34:38;99088;;;8.73;88.11
62632;BME280;48703;51.248;-0.546;2022-12-29T05:37:40;99098;;;8.72;87.62
62632;BME280;48703;51.248;-0.546;2022-12-29T05:40:42;99106;;;8.69;87.35
62632;BME280;48703;51.248;-0.546;2022-12-29T05:43:44;99122;;;8.67;87.60
62632;BME280;48703;51.248;-0.546;2022-12-29T05:46:46;99133;;;8.65;86.96
62632;BME280;48703;51.248;-0.546;2022-12-29T05:49:48;99144;;;8.65;86.78
62632;BME280;48703;51.248;-0.546;2022-12-29T05:52:50;99162;;;8.65;86.00
62632;BME280;48703;51.248;-0.546;2022-12-29T05:55:52;99168;;;8.66;85.89
62632;BME280;48703;51.248;-0.546;2022-12-29T05:58:54;99181;;;8.66;85.05
62632;BME280;48703;51.248;-0.546;2022-12-29T06:01:56;99188;;;8.66;85.92
62632;BME280;48703;51.248;-0.546;2022-12-29T06:04:58;99189;;;8.63;84.82
62632;BME280;48703;51.248;-0.546;2022-12-29T06:08:00;99199;;;8.58;84.63
62632;BME280;48703;51.248;-0.546;2022-12-29T06:11:02;99206;;;8.53;83.83
62632;BME280;48703;51.248;-0.546;2022-12-29T06:14:04;99215;;;8.47;82.80
62632;BME280;48703;51.248;-0.546;2022-12-29T06:17:06;99224;;;8.44;83.60
62632;BME280;48703;51.248;-0.546;2022-12-29T06:20:09;99241;;;8.41;84.45
62632;BME280;48703;51.248;-0.546;2022-12-29T06:23:10;99247;;;8.38;84.18
62632;BME280;48703;51.248;-0.546;2022-12-29T06:26:12;99255;;;8.33;83.37
62632;BME280;48703;51.248;-0.546;2022-12-29T06:29:14;99270;;;8.30;83.76
62632;BME280;48703;51.248;-0.546;2022-12-29T06:32:16;99277;;;8.27;83.63
62632;BME280;48703;51.248;-0.546;2022-12-29T06:35:18;99283;;;8.27;84.17
62632;BME280;48703;51.248;-0.546;2022-12-29T06:38:20;99282;;;8.25;83.65
62632;BME280;48703;51.248;-0.546;2022-12-29T06:41:22;99289;;;8.24;84.38
62632;BME280;48703;51.248;-0.546;2022-12-29T06:44:24;99297;;;8.21;83.94
62632;BME280;48703;51.248;-0.546;2022-12-29T06:47:26;99303;;;8.19;83.65
62632;BME280;48703;51.248;-0.546;2022-12-29T06:50:28;99302;;;8.17;84.68
62632;BME280;48703;51.248;-0.546;2022-12-29T06:53:30;99311;;;8.16;84.77
62632;BME280;48703;51.248;-0.546;2022-12-29T06:56:32;99317;;;8.15;84.63
62632;BME280;48703;51.248;-0.546;2022-12-29T06:59:34;99320;;;8.14;84.68
62632;BME280;48703;51.248;-0.546;2022-12-29T07:02:35;99315;;;8.12;84.71
62632;BME280;48703;51.248;-0.546;2022-12-29T07:05:37;99322;;;8.09;84.20
62632;BME280;48703;51.248;-0.546;2022-12-29T07:08:40;99324;;;8.07;84.56
62632;BME280;48703;51.248;-0.546;2022-12-29T07:11:41;99327;;;8.04;84.38
62632;BME280;48703;51.248;-0.546;2022-12-29T07:14:43;99332;;;8.02;84.97
62632;BME280;48703;51.248;-0.546;2022-12-29T07:17:45;99341;;;8.00;84.59
62632;BME280;48703;51.248;-0.546;2022-12-29T07:20:48;99348;;;7.97;85.01
62632;BME280;48703;51.248;-0.546;2022-12-29T07:23:49;99352;;;7.95;85.26
62632;BME280;48703;51.248;-0.546;2022-12-29T07:26:52;99356;;;7.92;85.01
62632;BME280;48703;51.248;-0.546;2022-12-29T07:29:53;99360;;;7.90;84.90
62632;BME280;48703;51.248;-0.546;2022-12-29T07:32:56;99364;;;7.88;85.46
62632;BME280;48703;51.248;-0.546;2022-12-29T07:35:58;99365;;;7.86;85.65
62632;BME280;48703;51.248;-0.546;2022-12-29T07:39:00;99366;;;7.84;85.61
62632;BME280;48703;51.248;-0.546;2022-12-29T07:42:01;99368;;;7.82;85.90
62632;BME280;48703;51.248;-0.546;2022-12-29T07:45:04;99373;;;7.80;86.14
62632;BME280;48703;51.248;-0.546;2022-12-29T07:48:05;99380;;;7.78;86.24
62632;BME280;48703;51.248;-0.546;2022-12-29T07:51:07;99384;;;7.77;86.38
62632;BME280;48703;51.248;-0.546;2022-12-29T07:54:09;99392;;;7.76;86.55
62632;BME280;48703;51.248;-0.546;2022-12-29T07:57:12;99393;;;7.75;86.63
62632;BME280;48703;51.248;-0.546;2022-12-29T08:00:14;99403;;;7.75;86.79
62632;BME280;48703;51.248;-0.546;2022-12-29T08:03:15;99403;;;7.74;86.78
62632;BME280;48703;51.248;-0.546;2022-12-29T08:06:17;99407;;;7.73;86.74
62632;BME280;48703;51.248;-0.546;2022-12-29T08:09:19;99407;;;7.70;86.88
62632;BME280;48703;51.248;-0.546;2022-12-29T08:12:21;99411;;;7.68;86.98
62632;BME280;48703;51.248;-0.546;2022-12-29T08:15:23;99417;;;7.64;86.96
62632;BME280;48703;51.248;-0.546;2022-12-29T08:18:25;99421;;;7.61;87.02
62632;BME280;48703;51.248;-0.546;2022-12-29T08:21:27;99425;;;7.59;87.16
62632;BME280;48703;51.248;-0.546;2022-12-29T08:24:29;99438;;;7.58;87.18
62632;BME280;48703;51.248;-0.546;2022-12-29T08:27:31;99444;;;7.56;87.21
62632;BME280;48703;51.248;-0.546;2022-12-29T08:30:35;99442;;;7.55;87.29
62632;BME280;48703;51.248;-0.546;2022-12-29T08:33:35;99446;;;7.54;87.22
62632;BME280;48703;51.248;-0.546;2022-12-29T08:36:37;99448;;;7.53;87.30
62632;BME280;48703;51.248;-0.546;2022-12-29T08:39:39;99454;;;7.53;87.24
62632;BME280;48703;51.248;-0.546;2022-12-29T08:42:41;99460;;;7.55;87.24
62632;BME280;48703;51.248;-0.546;2022-12-29T08:45:43;99467;;;7.56;87.18
62632;BME280;48703;51.248;-0.546;2022-12-29T08:48:45;99471;;;7.57;87.27
62632;BME280;48703;51.248;-0.546;2022-12-29T08:51:47;99476;;;7.58;87.20
62632;BME280;48703;51.248;-0.546;2022-12-29T08:54:49;99479;;;7.60;87.24
62632;BME280;48703;51.248;-0.546;2022-12-29T08:57:51;99476;;;7.59;87.13
62632;BME280;48703;51.248;-0.546;2022-12-29T09:00:54;99484;;;7.58;87.18
62632;BME280;48703;51.248;-0.546;2022-12-29T09:03:55;99488;;;7.57;87.06
62632;BME280;48703;51.248;-0.546;2022-12-29T09:06:57;99489;;;7.57;87.12
62632;BME280;48703;51.248;-0.546;2022-12-29T09:09:59;99491;;;7.56;87.02
62632;BME280;48703;51.248;-0.546;2022-12-29T09:13:01;99495;;;7.56;87.34
62632;BME280;48703;51.248;-0.546;2022-12-29T09:16:04;99502;;;7.57;87.03
62632;BME280;48703;51.248;-0.546;2022-12-29T09:19:05;99509;;;7.57;87.28
62632;BME280;48703;51.248;-0.546;2022-12-29T09:22:07;99510;;;7.56;87.24
62632;BME280;48703;51.248;-0.546;2022-12-29T09:25:10;99510;;;7.54;87.08
62632;BME280;48703;51.248;-0.546;2022-12-29T09:28:11;99518;;;7.54;86.85
62632;BME280;48703;51.248;-0.546;2022-12-29T09:31:13;99519;;;7.53;86.59
62632;BME280;48703;51.248;-0.546;2022-12-29T09:34:15;99524;;;7.53;86.29
62632;BME280;48703;51.248;-0.546;2022-12-29T09:37:17;99531;;;7.52;86.06
62632;BME280;48703;51.248;-0.546;2022-12-29T09:40:24;99536;;;7.53;86.39
62632;BME280;48703;51.248;-0.546;2022-12-29T09:43:30;99544;;;7.53;85.97
62632;BME280;48703;51.248;-0.546;2022-12-29T09:46:24;99555;;;7.53;86.29
62632;BME280;48703;51.248;-0.546;2022-12-29T09:49:28;99559;;;7.54;86.23
62632;BME280;48703;51.248;-0.546;2022-12-29T09:52:29;99568;;;7.57;86.41
62632;BME280;48703;51.248;-0.546;2022-12-29T09:55:32;99573;;;7.59;85.82
62632;BME280;48703;51.248;-0.546;2022-12-29T09:58:34;99583;;;7.62;86.05
62632;BME280;48703;51.248;-0.546;2022-12-29T10:01:34;99587;;;7.65;86.14
62632;BME280;48703;51.248;-0.546;2022-12-29T10:04:35;99595;;;7.67;85.96
62632;BME280;48703;51.248;-0.546;2022-12-29T10:07:40;99599;;;7.70;86.16
62632;BME280;48703;51.248;-0.546;2022-12-29T10:10:40;99601;;;7.72;85.75
62632;BME280;48703;51.248;-0.546;2022-12-29T10:13:55;99611;;;7.73;85.82
62632;BME280;48703;51.248;-0.546;2022-12-29T10:16:44;99616;;;7.74;85.93
62632;BME280;48703;51.248;-0.546;2022-12-29T10:19:49;99619;;;7.75;85.47
62632;BME280;48703;51.248;-0.546;2022-12-29T10:22:52;99625;;;7.76;84.70
62632;BME280;48703;51.248;-0.546;2022-12-29T10:25:49;99631;;;7.77;85.07
62632;BME280;48703;51.248;-0.546;2022-12-29T10:28:52;99634;;;7.77;84.36
62632;BME280;48703;51.248;-0.546;2022-12-29T10:31:54;99633;;;7.77;84.14
62632;BME280;48703;51.248;-0.546;2022-12-29T10:34:56;99633;;;7.77;84.07
62632;BME280;48703;51.248;-0.546;2022-12-29T10:37:58;99638;;;7.76;83.90
62632;BME280;48703;51.248;-0.546;2022-12-29T10:41:00;99639;;;7.76;84.07
62632;BME280;48703;51.248;-0.546;2022-12-29T10:44:01;99640;;;7.76;84.15
62632;BME280;48703;51.248;-0.546;2022-12-29T10:47:06;99642;;;7.77;83.78
62632;BME280;48703;51.248;-0.546;2022-12-29T10:50:05;99649;;;7.78;84.04
62632;BME280;48703;51.248;-0.546;2022-12-29T10:53:07;99655;;;7.78;82.97
62632;BME280;48703;51.248;-0.546;2022-12-29T10:56:13;99659;;;7.80;83.09
62632;BME280;48703;51.248;-0.546;2022-12-29T10:59:12;99663;;;7.81;82.69
62632;BME280;48703;51.248;-0.546;2022-12-29T11:02:23;99668;;;7.83;82.79
62632;BME280;48703;51.248;-0.546;2022-12-29T11:05:16;99670;;;7.83;82.41
62632;BME280;48703;51.248;-0.546;2022-12-29T11:08:18;99669;;;7.82;82.36
62632;BME280;48703;51.248;-0.546;2022-12-29T11:11:22;99673;;;7.81;82.68
62632;BME280;48703;51.248;-0.546;2022-12-29T11:14:25;99681;;;7.81;82.16
62632;BME280;48703;51.248;-0.546;2022-12-29T11:17:23;99685;;;7.80;82.21
62632;BME280;48703;51.248;-0.546;2022-12-29T11:20:29;99687;;;7.81;82.65
62632;BME280;48703;51.248;-0.546;2022-12-29T11:23:30;99687;;;7.80;81.58
62632;BME280;48703;51.248;-0.546;2022-12-29T11:26:29;99689;;;7.81;82.76
62632;BME280;48703;51.248;-0.546;2022-12-29T11:29:36;99695;;;7.82;80.77
62632;BME280;48703;51.248;-0.546;2022-12-29T11:32:33;99695;;;7.84;81.00
62632;BME280;48703;51.248;-0.546;2022-12-29T11:35:35;99699;;;7.85;80.93
62632;BME280;48703;51.248;-0.546;2022-12-29T11:38:38;99691;;;7.86;80.55
62632;BME280;48703;51.248;-0.546;2022-12-29T11:41:39;99690;;;7.85;81.48
62632;BME280;48703;51.248;-0.546;2022-12-29T11:44:42;99694;;;7.84;81.19
62632;BME280;48703;51.248;-0.546;2022-12-29T11:47:43;99700;;;7.84;81.53
62632;BME280;48703;51.248;-0.546;2022-12-29T11:50:49;99708;;;7.84;81.70
62632;BME280;48703;51.248;-0.546;2022-12-29T11:53:47;99712;;;7.82;81.39
62632;BME280;48703;51.248;-0.546;2022-12-29T11:56:49;99714;;;7.82;81.64
62632;BME280;48703;51.248;-0.546;2022-12-29T11:59:51;99712;;;7.82;81.37
62632;BME280;48703;51.248;-0.546;2022-12-29T12:02:53;99709;;;7.80;80.09
62632;BME280;48703;51.248;-0.546;2022-12-29T12:05:55;99715;;;7.80;80.09
62632;BME280;48703;51.248;-0.546;2022-12-29T12:08:57;99719;;;7.81;80.32
62632;BME280;48703;51.248;-0.546;2022-12-29T12:11:59;99727;;;7.80;79.74
62632;BME280;48703;51.248;-0.546;2022-12-29T12:15:01;99735;;;7.79;80.55
62632;BME280;48703;51.248;-0.546;2022-12-29T12:18:04;99735;;;7.80;80.02
62632;BME280;48703;51.248;-0.546;2022-12-29T12:21:06;99730;;;7.84;79.88
62632;BME280;48703;51.248;-0.546;2022-12-29T12:24:13;99723;;;7.88;80.10
62632;BME280;48703;51.248;-0.546;2022-12-29T12:27:11;99722;;;7.90;80.84
62632;BME280;48703;51.248;-0.546;2022-12-29T12:30:11;99721;;;7.92;80.68
62632;BME280;48703;51.248;-0.546;2022-12-29T12:33:15;99724;;;7.94;79.46
62632;BME280;48703;51.248;-0.546;2022-12-29T12:36:22;99726;;;7.96;79.70
62632;BME280;48703;51.248;-0.546;2022-12-29T12:39:19;99723;;;7.99;79.44
62632;BME280;48703;51.248;-0.546;2022-12-29T12:42:25;99723;;;8.04;79.60
62632;BME280;48703;51.248;-0.546;2022-12-29T12:45:27;99726;;;8.11;80.27
62632;BME280;48703;51.248;-0.546;2022-12-29T12:48:30;99723;;;8.18;79.39
62632;BME280;48703;51.248;-0.546;2022-12-29T12:51:26;99721;;;8.21;79.42
62632;BME280;48703;51.248;-0.546;2022-12-29T12:54:31;99725;;;8.23;79.61
62632;BME280;48703;51.248;-0.546;2022-12-29T12:57:31;99723;;;8.27;79.42
62632;BME280;48703;51.248;-0.546;2022-12-29T13:00:31;99726;;;8.31;79.04
62632;BME280;48703;51.248;-0.546;2022-12-29T13:03:37;99727;;;8.32;78.12
62632;BME280;48703;51.248;-0.546;2022-12-29T13:06:37;99736;;;8.34;77.65
62632;BME280;48703;51.248;-0.546;2022-12-29T13:09:41;99736;;;8.36;77.22
62632;BME280;48703;51.248;-0.546;2022-12-29T13:12:40;99732;;;8.35;77.00
62632;BME280;48703;51.248;-0.546;2022-12-29T13:15:42;99733;;;8.36;77.52
62632;BME280;48703;51.248;-0.546;2022-12-29T13:18:45;99729;;;8.38;77.47
62632;BME280;48703;51.248;-0.546;2022-12-29T13:21:48;99733;;;8.37;75.92
62632;BME280;48703;51.248;-0.546;2022-12-29T13:24:50;99727;;;8.41;77.25
62632;BME280;48703;51.248;-0.546;2022-12-29T13:27:50;99730;;;8.50;77.67
62632;BME280;48703;51.248;-0.546;2022-12-29T13:30:53;99739;;;8.61;78.01
62632;BME280;48703;51.248;-0.546;2022-12-29T13:33:54;99742;;;8.65;76.77
62632;BME280;48703;51.248;-0.546;2022-12-29T13:36:55;99744;;;8.63;75.48
62632;BME280;48703;51.248;-0.546;2022-12-29T13:39:57;99743;;;8.60;76.20
62632;BME280;48703;51.248;-0.546;2022-12-29T13:42:59;99751;;;8.57;76.08
62632;BME280;48703;51.248;-0.546;2022-12-29T13:46:03;99745;;;8.53;75.77
62632;BME280;48703;51.248;-0.546;2022-12-29T13:49:04;99753;;;8.47;75.99
62632;BME280;48703;51.248;-0.546;2022-12-29T13:52:07;99758;;;8.44;76.16
62632;BME280;48703;51.248;-0.546;2022-12-29T13:55:16;99759;;;8.44;77.26
62632;BME280;48703;51.248;-0.546;2022-12-29T13:58:11;99758;;;8.45;76.90
62632;BME280;48703;51.248;-0.546;2022-12-29T14:01:12;99761;;;8.47;77.28
62632;BME280;48703;51.248;-0.546;2022-12-29T14:04:13;99762;;;8.49;76.75
62632;BME280;48703;51.248;-0.546;2022-12-29T14:07:15;99767;;;8.47;76.15
62632;BME280;48703;51.248;-0.546;2022-12-29T14:10:25;99765;;;8.45;75.80
62632;BME280;48703;51.248;-0.546;2022-12-29T14:13:19;99769;;;8.44;74.91
62632;BME280;48703;51.248;-0.546;2022-12-29T14:16:24;99771;;;8.44;74.14
62632;BME280;48703;51.248;-0.546;2022-12-29T14:19:23;99773;;;8.44;75.07
62632;BME280;48703;51.248;-0.546;2022-12-29T14:22:25;99778;;;8.46;75.75
62632;BME280;48703;51.248;-0.546;2022-12-29T14:26:00;99778;;;8.44;74.69
62632;BME280;48703;51.248;-0.546;2022-12-29T14:28:29;99777;;;8.45;75.19
62632;BME280;48703;51.248;-0.546;2022-12-29T14:31:34;99771;;;8.47;75.49
62632;BME280;48703;51.248;-0.546;2022-12-29T14:34:38;99777;;;8.46;74.82
62632;BME280;48703;51.248;-0.546;2022-12-29T14:37:35;99777;;;8.43;73.19
62632;BME280;48703;51.248;-0.546;2022-12-29T14:40:37;99777;;;8.39;73.71
62632;BME280;48703;51.248;-0.546;2022-12-29T14:43:39;99777;;;8.35;72.62
62632;BME280;48703;51.248;-0.546;2022-12-29T14:46:45;99779;;;8.30;72.95
62632;BME280;48703;51.248;-0.546;2022-12-29T14:49:43;99784;;;8.26;73.47
62632;BME280;48703;51.248;-0.546;2022-12-29T14:52:46;99789;;;8.22;73.07
62632;BME280;48703;51.248;-0.546;2022-12-29T14:55:47;99791;;;8.19;72.56
62632;BME280;48703;51.248;-0.546;2022-12-29T14:58:50;99794;;;8.17;72.90
62632;BME280;48703;51.248;-0.546;2022-12-29T15:01:52;99788;;;8.16;72.98
62632;BME280;48703;51.248;-0.546;2022-12-29T15:04:53;99795;;;8.13;73.35
62632;BME280;48703;51.248;-0.546;2022-12-29T15:07:55;99802;;;8.09;73.38
62632;BME280;48703;51.248;-0.546;2022-12-29T15:10:58;99808;;;8.05;74.19
62632;BME280;48703;51.248;-0.546;2022-12-29T15:13:58;99816;;;8.02;74.06
62632;BME280;48703;51.248;-0.546;2022-12-29T15:17:01;99821;;;7.97;73.53
62632;BME280;48703;51.248;-0.546;2022-12-29T15:20:14;99826;;;7.94;73.26
62632;BME280;48703;51.248;-0.546;2022-12-29T15:23:08;99832;;;7.90;73.85
62632;BME280;48703;51.248;-0.546;2022-12-29T15:26:07;99838;;;7.88;74.70
62632;BME280;48703;51.248;-0.546;2022-12-29T15:29:27;99846;;;7.82;73.36
62632;BME280;48703;51.248;-0.546;2022-12-29T15:32:16;99843;;;7.80;75.12
62632;BME280;48703;51.248;-0.546;2022-12-29T15:35:30;99847;;;7.77;75.24
62632;BME280;48703;51.248;-0.546;2022-12-29T15:38:15;99844;;;7.73;74.92
62632;BME280;48703;51.248;-0.546;2022-12-29T15:41:21;99843;;;7.70;75.30
62632;BME280;48703;51.248;-0.546;2022-12-29T15:44:20;99855;;;7.67;75.41
62632;BME280;48703;51.248;-0.546;2022-12-29T15:47:21;99862;;;7.65;75.89
62632;BME280;48703;51.248;-0.546;2022-12-29T15:50:23;99867;;;7.63;76.19
62632;BME280;48703;51.248;-0.546;2022-12-29T15:53:26;99864;;;7.61;76.34
62632;BME280;48703;51.248;-0.546;2022-12-29T15:56:28;99864;;;7.58;76.04
62632;BME280;48703;51.248;-0.546;2022-12-29T15:59:29;99876;;;7.56;76.42
62632;BME280;48703;51.248;-0.546;2022-12-29T16:02:30;99886;;;7.55;76.62
62632;BME280;48703;51.248;-0.546;2022-12-29T16:05:33;99887;;;7.55;76.32
62632;BME280;48703;51.248;-0.546;2022-12-29T16:08:35;99888;;;7.54;76.79
62632;BME280;48703;51.248;-0.546;2022-12-29T16:11:37;99895;;;7.53;77.17
62632;BME280;48703;51.248;-0.546;2022-12-29T16:14:40;99897;;;7.51;76.80
62632;BME280;48703;51.248;-0.546;2022-12-29T16:17:43;99906;;;7.48;76.98
62632;BME280;48703;51.248;-0.546;2022-12-29T16:20:42;99913;;;7.45;76.74
62632;BME280;48703;51.248;-0.546;2022-12-29T16:23:46;99910;;;7.42;77.10
62632;BME280;48703;51.248;-0.546;2022-12-29T16:26:47;99910;;;7.39;77.32
62632;BME280;48703;51.248;-0.546;2022-12-29T16:29:48;99914;;;7.36;77.21
62632;BME280;48703;51.248;-0.546;2022-12-29T16:32:51;99916;;;7.33;77.58
62632;BME280;48703;51.248;-0.546;2022-12-29T16:35:52;99918;;;7.29;77.73
62632;BME280;48703;51.248;-0.546;2022-12-29T16:39:27;99920;;;7.26;77.78
62632;BME280;48703;51.248;-0.546;2022-12-29T16:41:56;99919;;;7.23;77.87